aviador You're here:

YCBA Decoded Metar

in
Report Time2018-01-16 20:00:00
UTC Time2018-01-16 21:06:08
Flight Rules vfr VFR
Wind060° at 09 kt
W.Decomp.*RWY 05: 8.9 kt HW 1.6 kt RCW
RWY 35: 3.1 kt HW 8.5 kt RCW
W.Rank060° ranks 3
Current wind is above 060° avg. (6.0)
Visibility9999 m
Phenomena:N/A
Clouds:N/A
Expected CloudBase > 6,800 ft AGL from Temp-Dew spread
CeilingNone
Temp19°C
Dew Point02°C (32% RH)
AAT14.1°C
QNH1016 hPa
Raw Report
METAR YCBA 162000Z AUTO 06009KT 9999 // NCD 19/02 Q1016=

Extra information for YCBA:More info

Social comments